sensor_id;sensor_type;location;lat;lon;timestamp;P1;durP1;ratioP1;P2;durP2;ratioP2
16407;SDS011;8313;49.894;8.084;2023-03-25T00:00:59;0.40;;;0.37;;
16407;SDS011;8313;49.894;8.084;2023-03-25T00:03:27;0.43;;;0.43;;
16407;SDS011;8313;49.894;8.084;2023-03-25T00:05:55;3.33;;;0.67;;
16407;SDS011;8313;49.894;8.084;2023-03-25T00:08:22;0.93;;;0.40;;
16407;SDS011;8313;49.894;8.084;2023-03-25T00:10:53;0.40;;;0.33;;
16407;SDS011;8313;49.894;8.084;2023-03-25T00:13:19;0.70;;;0.50;;
16407;SDS011;8313;49.894;8.084;2023-03-25T00:15:46;0.40;;;0.40;;
16407;SDS011;8313;49.894;8.084;2023-03-25T00:18:13;0.50;;;0.40;;
16407;SDS011;8313;49.894;8.084;2023-03-25T00:20:41;0.40;;;0.30;;
16407;SDS011;8313;49.894;8.084;2023-03-25T00:23:10;1.63;;;0.50;;
16407;SDS011;8313;49.894;8.084;2023-03-25T00:25:36;2.90;;;0.60;;
16407;SDS011;8313;49.894;8.084;2023-03-25T00:28:02;0.83;;;0.60;;
16407;SDS011;8313;49.894;8.084;2023-03-25T00:30:28;0.70;;;0.50;;
16407;SDS011;8313;49.894;8.084;2023-03-25T00:32:54;0.50;;;0.47;;
16407;SDS011;8313;49.894;8.084;2023-03-25T00:35:21;0.87;;;0.50;;
16407;SDS011;8313;49.894;8.084;2023-03-25T00:37:48;1.77;;;0.83;;
16407;SDS011;8313;49.894;8.084;2023-03-25T00:40:28;0.70;;;0.40;;
16407;SDS011;8313;49.894;8.084;2023-03-25T00:43:00;0.83;;;0.77;;
16407;SDS011;8313;49.894;8.084;2023-03-25T00:45:26;1.73;;;0.57;;
16407;SDS011;8313;49.894;8.084;2023-03-25T00:47:52;0.40;;;0.40;;
16407;SDS011;8313;49.894;8.084;2023-03-25T00:50:18;0.67;;;0.50;;
16407;SDS011;8313;49.894;8.084;2023-03-25T00:52:45;0.93;;;0.60;;
16407;SDS011;8313;49.894;8.084;2023-03-25T00:55:11;0.53;;;0.50;;
16407;SDS011;8313;49.894;8.084;2023-03-25T00:57:37;2.27;;;0.60;;
16407;SDS011;8313;49.894;8.084;2023-03-25T01:00:04;1.73;;;0.50;;
16407;SDS011;8313;49.894;8.084;2023-03-25T01:02:31;1.23;;;0.50;;
16407;SDS011;8313;49.894;8.084;2023-03-25T01:04:57;2.43;;;0.93;;
16407;SDS011;8313;49.894;8.084;2023-03-25T01:07:24;1.60;;;0.60;;
16407;SDS011;8313;49.894;8.084;2023-03-25T01:09:49;1.10;;;0.60;;
16407;SDS011;8313;49.894;8.084;2023-03-25T01:12:15;3.63;;;0.90;;
16407;SDS011;8313;49.894;8.084;2023-03-25T01:14:43;0.80;;;0.70;;
16407;SDS011;8313;49.894;8.084;2023-03-25T01:17:08;1.27;;;0.60;;
16407;SDS011;8313;49.894;8.084;2023-03-25T01:19:35;1.77;;;0.80;;
16407;SDS011;8313;49.894;8.084;2023-03-25T01:22:00;3.83;;;1.20;;
16407;SDS011;8313;49.894;8.084;2023-03-25T01:24:26;1.27;;;0.80;;
16407;SDS011;8313;49.894;8.084;2023-03-25T01:26:52;2.70;;;0.70;;
16407;SDS011;8313;49.894;8.084;2023-03-25T01:29:18;1.17;;;0.97;;
16407;SDS011;8313;49.894;8.084;2023-03-25T01:31:44;2.60;;;1.07;;
16407;SDS011;8313;49.894;8.084;2023-03-25T01:34:10;1.03;;;0.70;;
16407;SDS011;8313;49.894;8.084;2023-03-25T01:36:37;3.37;;;0.77;;
16407;SDS011;8313;49.894;8.084;2023-03-25T01:39:04;0.70;;;0.70;;
16407;SDS011;8313;49.894;8.084;2023-03-25T01:41:32;5.80;;;1.00;;
16407;SDS011;8313;49.894;8.084;2023-03-25T01:46:49;1.83;;;1.03;;
16407;SDS011;8313;49.894;8.084;2023-03-25T01:51:48;6.60;;;1.20;;
16407;SDS011;8313;49.894;8.084;2023-03-25T01:54:17;1.20;;;1.10;;
16407;SDS011;8313;49.894;8.084;2023-03-25T01:56:44;1.27;;;0.93;;
16407;SDS011;8313;49.894;8.084;2023-03-25T01:59:12;2.30;;;0.93;;
16407;SDS011;8313;49.894;8.084;2023-03-25T02:01:43;2.93;;;0.83;;
16407;SDS011;8313;49.894;8.084;2023-03-25T02:04:13;1.27;;;0.90;;
16407;SDS011;8313;49.894;8.084;2023-03-25T02:06:49;1.07;;;0.80;;
16407;SDS011;8313;49.894;8.084;2023-03-25T02:09:19;1.93;;;1.17;;
16407;SDS011;8313;49.894;8.084;2023-03-25T02:11:48;0.60;;;0.60;;
16407;SDS011;8313;49.894;8.084;2023-03-25T02:14:15;0.80;;;0.80;;
16407;SDS011;8313;49.894;8.084;2023-03-25T02:34:01;0.63;;;0.63;;
16407;SDS011;8313;49.894;8.084;2023-03-25T02:39:27;0.70;;;0.60;;
16407;SDS011;8313;49.894;8.084;2023-03-25T02:42:19;1.13;;;0.60;;
16407;SDS011;8313;49.894;8.084;2023-03-25T02:47:36;1.07;;;0.97;;
16407;SDS011;8313;49.894;8.084;2023-03-25T02:50:14;3.17;;;1.03;;
16407;SDS011;8313;49.894;8.084;2023-03-25T02:52:45;1.03;;;0.57;;
16407;SDS011;8313;49.894;8.084;2023-03-25T02:55:16;0.70;;;0.47;;
16407;SDS011;8313;49.894;8.084;2023-03-25T02:57:45;1.43;;;0.60;;
16407;SDS011;8313;49.894;8.084;2023-03-25T03:00:14;0.40;;;0.40;;
16407;SDS011;8313;49.894;8.084;2023-03-25T03:02:49;0.60;;;0.60;;
16407;SDS011;8313;49.894;8.084;2023-03-25T03:07:54;3.70;;;0.70;;
16407;SDS011;8313;49.894;8.084;2023-03-25T03:24:40;2.50;;;0.90;;
16407;SDS011;8313;49.894;8.084;2023-03-25T03:27:32;1.60;;;1.00;;
16407;SDS011;8313;49.894;8.084;2023-03-25T03:30:27;1.10;;;1.00;;
16407;SDS011;8313;49.894;8.084;2023-03-25T03:33:19;2.40;;;0.90;;
16407;SDS011;8313;49.894;8.084;2023-03-25T03:36:00;1.83;;;1.10;;
16407;SDS011;8313;49.894;8.084;2023-03-25T03:38:35;4.10;;;1.53;;
16407;SDS011;8313;49.894;8.084;2023-03-25T03:41:06;0.87;;;0.87;;
16407;SDS011;8313;49.894;8.084;2023-03-25T03:43:39;0.90;;;0.90;;
16407;SDS011;8313;49.894;8.084;2023-03-25T03:49:12;2.00;;;0.80;;
16407;SDS011;8313;49.894;8.084;2023-03-25T03:51:49;1.60;;;1.10;;
16407;SDS011;8313;49.894;8.084;2023-03-25T03:56:52;2.50;;;1.13;;
16407;SDS011;8313;49.894;8.084;2023-03-25T03:59:55;2.50;;;1.27;;
16407;SDS011;8313;49.894;8.084;2023-03-25T04:02:23;1.07;;;1.07;;
16407;SDS011;8313;49.894;8.084;2023-03-25T04:04:59;1.57;;;0.93;;
16407;SDS011;8313;49.894;8.084;2023-03-25T04:07:46;0.97;;;0.90;;
16407;SDS011;8313;49.894;8.084;2023-03-25T04:10:29;2.93;;;1.00;;
16407;SDS011;8313;49.894;8.084;2023-03-25T04:13:05;2.73;;;1.10;;
16407;SDS011;8313;49.894;8.084;2023-03-25T04:15:34;3.57;;;0.73;;
16407;SDS011;8313;49.894;8.084;2023-03-25T04:18:00;0.83;;;0.70;;
16407;SDS011;8313;49.894;8.084;2023-03-25T04:20:27;1.53;;;1.00;;
16407;SDS011;8313;49.894;8.084;2023-03-25T04:22:58;1.10;;;0.90;;
16407;SDS011;8313;49.894;8.084;2023-03-25T04:25:25;1.43;;;0.53;;
16407;SDS011;8313;49.894;8.084;2023-03-25T04:27:51;1.80;;;0.70;;
16407;SDS011;8313;49.894;8.084;2023-03-25T04:30:23;1.73;;;0.80;;
16407;SDS011;8313;49.894;8.084;2023-03-25T04:32:50;7.23;;;0.83;;
16407;SDS011;8313;49.894;8.084;2023-03-25T04:35:16;1.10;;;1.00;;
16407;SDS011;8313;49.894;8.084;2023-03-25T04:37:43;0.70;;;0.70;;
16407;SDS011;8313;49.894;8.084;2023-03-25T04:40:10;0.83;;;0.70;;
16407;SDS011;8313;49.894;8.084;2023-03-25T04:42:40;1.27;;;0.80;;
16407;SDS011;8313;49.894;8.084;2023-03-25T04:45:07;0.70;;;0.70;;
16407;SDS011;8313;49.894;8.084;2023-03-25T04:47:38;1.27;;;0.87;;
16407;SDS011;8313;49.894;8.084;2023-03-25T04:50:30;0.60;;;0.57;;
16407;SDS011;8313;49.894;8.084;2023-03-25T04:52:55;1.27;;;0.90;;
16407;SDS011;8313;49.894;8.084;2023-03-25T04:55:22;1.13;;;0.93;;
16407;SDS011;8313;49.894;8.084;2023-03-25T04:57:50;0.70;;;0.67;;
16407;SDS011;8313;49.894;8.084;2023-03-25T05:00:18;1.17;;;0.93;;
16407;SDS011;8313;49.894;8.084;2023-03-25T05:02:47;0.70;;;0.57;;
16407;SDS011;8313;49.894;8.084;2023-03-25T05:05:18;1.83;;;1.60;;
16407;SDS011;8313;49.894;8.084;2023-03-25T05:07:46;2.97;;;1.50;;
16407;SDS011;8313;49.894;8.084;2023-03-25T05:10:18;5.20;;;1.23;;
16407;SDS011;8313;49.894;8.084;2023-03-25T05:12:45;5.03;;;1.60;;
16407;SDS011;8313;49.894;8.084;2023-03-25T05:15:11;1.53;;;1.20;;
16407;SDS011;8313;49.894;8.084;2023-03-25T05:17:38;2.30;;;1.13;;
16407;SDS011;8313;49.894;8.084;2023-03-25T05:20:04;1.27;;;1.13;;
16407;SDS011;8313;49.894;8.084;2023-03-25T05:22:32;2.20;;;1.23;;
16407;SDS011;8313;49.894;8.084;2023-03-25T05:24:58;1.20;;;1.00;;
16407;SDS011;8313;49.894;8.084;2023-03-25T05:27:26;0.90;;;0.90;;
16407;SDS011;8313;49.894;8.084;2023-03-25T05:29:54;1.90;;;1.40;;
16407;SDS011;8313;49.894;8.084;2023-03-25T05:32:23;5.83;;;1.23;;
16407;SDS011;8313;49.894;8.084;2023-03-25T05:34:50;1.00;;;0.80;;
16407;SDS011;8313;49.894;8.084;2023-03-25T05:37:17;2.60;;;1.30;;
16407;SDS011;8313;49.894;8.084;2023-03-25T05:39:43;0.70;;;0.70;;
16407;SDS011;8313;49.894;8.084;2023-03-25T05:42:10;1.03;;;0.90;;
16407;SDS011;8313;49.894;8.084;2023-03-25T05:44:35;1.27;;;0.53;;
16407;SDS011;8313;49.894;8.084;2023-03-25T05:47:02;0.80;;;0.50;;
16407;SDS011;8313;49.894;8.084;2023-03-25T05:49:28;0.83;;;0.67;;
16407;SDS011;8313;49.894;8.084;2023-03-25T05:51:54;2.83;;;1.17;;
16407;SDS011;8313;49.894;8.084;2023-03-25T05:54:23;0.60;;;0.60;;
16407;SDS011;8313;49.894;8.084;2023-03-25T05:56:51;0.53;;;0.53;;
16407;SDS011;8313;49.894;8.084;2023-03-25T05:59:17;3.27;;;0.90;;
16407;SDS011;8313;49.894;8.084;2023-03-25T06:01:44;0.93;;;0.80;;
16407;SDS011;8313;49.894;8.084;2023-03-25T06:04:10;2.10;;;1.10;;
16407;SDS011;8313;49.894;8.084;2023-03-25T06:06:37;0.83;;;0.77;;
16407;SDS011;8313;49.894;8.084;2023-03-25T06:09:05;2.70;;;1.10;;
16407;SDS011;8313;49.894;8.084;2023-03-25T06:11:31;2.43;;;1.27;;
16407;SDS011;8313;49.894;8.084;2023-03-25T06:14:02;2.07;;;1.10;;
16407;SDS011;8313;49.894;8.084;2023-03-25T06:16:29;1.90;;;1.27;;
16407;SDS011;8313;49.894;8.084;2023-03-25T06:18:57;0.93;;;0.90;;
16407;SDS011;8313;49.894;8.084;2023-03-25T06:21:26;5.33;;;1.20;;
16407;SDS011;8313;49.894;8.084;2023-03-25T06:23:57;1.90;;;1.13;;
16407;SDS011;8313;49.894;8.084;2023-03-25T06:26:25;2.13;;;1.10;;
16407;SDS011;8313;49.894;8.084;2023-03-25T06:28:51;1.17;;;0.83;;
16407;SDS011;8313;49.894;8.084;2023-03-25T06:31:18;0.70;;;0.70;;
16407;SDS011;8313;49.894;8.084;2023-03-25T06:33:50;2.83;;;1.17;;
16407;SDS011;8313;49.894;8.084;2023-03-25T06:36:17;3.80;;;1.03;;
16407;SDS011;8313;49.894;8.084;2023-03-25T06:38:45;1.03;;;0.60;;
16407;SDS011;8313;49.894;8.084;2023-03-25T06:41:15;2.00;;;0.80;;
16407;SDS011;8313;49.894;8.084;2023-03-25T06:43:46;0.80;;;0.80;;
16407;SDS011;8313;49.894;8.084;2023-03-25T06:46:31;1.40;;;0.90;;
16407;SDS011;8313;49.894;8.084;2023-03-25T06:49:13;2.27;;;0.90;;
16407;SDS011;8313;49.894;8.084;2023-03-25T06:51:39;2.47;;;0.70;;
16407;SDS011;8313;49.894;8.084;2023-03-25T06:54:05;2.77;;;0.77;;
16407;SDS011;8313;49.894;8.084;2023-03-25T06:56:30;2.63;;;1.10;;
16407;SDS011;8313;49.894;8.084;2023-03-25T06:58:56;1.67;;;0.90;;
16407;SDS011;8313;49.894;8.084;2023-03-25T07:01:22;2.70;;;1.07;;
16407;SDS011;8313;49.894;8.084;2023-03-25T07:03:47;1.23;;;0.90;;
16407;SDS011;8313;49.894;8.084;2023-03-25T07:06:15;1.60;;;0.83;;
16407;SDS011;8313;49.894;8.084;2023-03-25T07:08:42;1.03;;;0.83;;
16407;SDS011;8313;49.894;8.084;2023-03-25T07:11:08;2.73;;;1.53;;
16407;SDS011;8313;49.894;8.084;2023-03-25T07:13:36;2.17;;;1.00;;
16407;SDS011;8313;49.894;8.084;2023-03-25T07:16:02;4.03;;;1.60;;
16407;SDS011;8313;49.894;8.084;2023-03-25T07:18:27;1.90;;;1.20;;
16407;SDS011;8313;49.894;8.084;2023-03-25T07:20:53;11.83;;;1.40;;
16407;SDS011;8313;49.894;8.084;2023-03-25T07:23:19;2.17;;;1.23;;
16407;SDS011;8313;49.894;8.084;2023-03-25T07:25:45;1.53;;;1.13;;
16407;SDS011;8313;49.894;8.084;2023-03-25T07:28:10;5.70;;;1.70;;
16407;SDS011;8313;49.894;8.084;2023-03-25T07:30:42;4.10;;;1.63;;
16407;SDS011;8313;49.894;8.084;2023-03-25T07:33:07;6.23;;;1.53;;
16407;SDS011;8313;49.894;8.084;2023-03-25T07:35:33;2.40;;;1.50;;
16407;SDS011;8313;49.894;8.084;2023-03-25T07:37:59;1.70;;;1.10;;
16407;SDS011;8313;49.894;8.084;2023-03-25T07:40:25;12.83;;;1.53;;
16407;SDS011;8313;49.894;8.084;2023-03-25T07:42:50;4.67;;;1.63;;
16407;SDS011;8313;49.894;8.084;2023-03-25T07:45:34;3.13;;;1.23;;
16407;SDS011;8313;49.894;8.084;2023-03-25T07:48:00;2.53;;;1.23;;
16407;SDS011;8313;49.894;8.084;2023-03-25T07:50:26;2.30;;;1.10;;
16407;SDS011;8313;49.894;8.084;2023-03-25T07:52:52;6.57;;;1.57;;
16407;SDS011;8313;49.894;8.084;2023-03-25T07:55:18;3.97;;;1.30;;
16407;SDS011;8313;49.894;8.084;2023-03-25T07:57:43;2.37;;;1.40;;
16407;SDS011;8313;49.894;8.084;2023-03-25T08:00:09;6.97;;;1.77;;
16407;SDS011;8313;49.894;8.084;2023-03-25T08:02:38;5.97;;;1.50;;
16407;SDS011;8313;49.894;8.084;2023-03-25T08:05:06;1.90;;;1.30;;
16407;SDS011;8313;49.894;8.084;2023-03-25T08:07:32;3.90;;;1.60;;
16407;SDS011;8313;49.894;8.084;2023-03-25T08:09:57;3.53;;;1.70;;
16407;SDS011;8313;49.894;8.084;2023-03-25T08:12:23;11.77;;;1.83;;
16407;SDS011;8313;49.894;8.084;2023-03-25T08:14:49;10.83;;;2.70;;
16407;SDS011;8313;49.894;8.084;2023-03-25T08:17:15;5.53;;;1.87;;
16407;SDS011;8313;49.894;8.084;2023-03-25T08:19:41;10.80;;;1.90;;
16407;SDS011;8313;49.894;8.084;2023-03-25T08:22:06;5.33;;;1.67;;
16407;SDS011;8313;49.894;8.084;2023-03-25T08:24:32;4.07;;;1.33;;
16407;SDS011;8313;49.894;8.084;2023-03-25T08:26:58;5.60;;;1.50;;
16407;SDS011;8313;49.894;8.084;2023-03-25T08:29:25;1.77;;;1.67;;
16407;SDS011;8313;49.894;8.084;2023-03-25T08:31:51;2.13;;;1.30;;
16407;SDS011;8313;49.894;8.084;2023-03-25T08:34:19;6.33;;;2.17;;
16407;SDS011;8313;49.894;8.084;2023-03-25T08:36:46;14.10;;;1.37;;
16407;SDS011;8313;49.894;8.084;2023-03-25T08:39:13;2.17;;;1.10;;
16407;SDS011;8313;49.894;8.084;2023-03-25T08:41:41;2.10;;;1.67;;
16407;SDS011;8313;49.894;8.084;2023-03-25T08:44:08;2.53;;;1.50;;
16407;SDS011;8313;49.894;8.084;2023-03-25T08:46:34;1.50;;;1.30;;
16407;SDS011;8313;49.894;8.084;2023-03-25T08:49:00;2.90;;;1.40;;
16407;SDS011;8313;49.894;8.084;2023-03-25T08:51:27;2.60;;;1.30;;
16407;SDS011;8313;49.894;8.084;2023-03-25T08:53:52;3.67;;;1.90;;
16407;SDS011;8313;49.894;8.084;2023-03-25T08:56:18;7.23;;;2.07;;
16407;SDS011;8313;49.894;8.084;2023-03-25T08:58:44;2.90;;;1.60;;
16407;SDS011;8313;49.894;8.084;2023-03-25T09:01:10;4.30;;;1.60;;
16407;SDS011;8313;49.894;8.084;2023-03-25T09:03:36;3.00;;;1.70;;
16407;SDS011;8313;49.894;8.084;2023-03-25T09:06:06;4.40;;;1.93;;
16407;SDS011;8313;49.894;8.084;2023-03-25T09:08:33;1.77;;;1.67;;
16407;SDS011;8313;49.894;8.084;2023-03-25T09:11:01;5.37;;;2.07;;
16407;SDS011;8313;49.894;8.084;2023-03-25T09:13:26;6.47;;;2.27;;
16407;SDS011;8313;49.894;8.084;2023-03-25T09:15:52;7.60;;;1.90;;
16407;SDS011;8313;49.894;8.084;2023-03-25T09:18:18;1.50;;;1.40;;
16407;SDS011;8313;49.894;8.084;2023-03-25T09:20:43;5.40;;;2.10;;
16407;SDS011;8313;49.894;8.084;2023-03-25T09:23:13;7.80;;;1.60;;
16407;SDS011;8313;49.894;8.084;2023-03-25T09:25:39;3.13;;;1.67;;
16407;SDS011;8313;49.894;8.084;2023-03-25T09:28:05;4.20;;;2.07;;
16407;SDS011;8313;49.894;8.084;2023-03-25T09:30:30;1.47;;;1.37;;
16407;SDS011;8313;49.894;8.084;2023-03-25T09:32:56;3.43;;;1.60;;
16407;SDS011;8313;49.894;8.084;2023-03-25T09:35:22;3.03;;;1.57;;
16407;SDS011;8313;49.894;8.084;2023-03-25T09:37:48;2.20;;;1.50;;
16407;SDS011;8313;49.894;8.084;2023-03-25T09:40:14;2.03;;;1.33;;
16407;SDS011;8313;49.894;8.084;2023-03-25T09:42:52;1.53;;;1.40;;
16407;SDS011;8313;49.894;8.084;2023-03-25T09:45:31;1.40;;;1.30;;
16407;SDS011;8313;49.894;8.084;2023-03-25T09:48:00;2.10;;;0.80;;
16407;SDS011;8313;49.894;8.084;2023-03-25T09:50:31;1.00;;;0.77;;
16407;SDS011;8313;49.894;8.084;2023-03-25T09:53:02;1.33;;;0.83;;
16407;SDS011;8313;49.894;8.084;2023-03-25T09:55:40;1.47;;;0.70;;
16407;SDS011;8313;49.894;8.084;2023-03-25T09:58:18;1.37;;;0.60;;
16407;SDS011;8313;49.894;8.084;2023-03-25T10:00:48;0.87;;;0.53;;
16407;SDS011;8313;49.894;8.084;2023-03-25T10:03:23;1.73;;;0.60;;
16407;SDS011;8313;49.894;8.084;2023-03-25T10:06:05;0.93;;;0.50;;
16407;SDS011;8313;49.894;8.084;2023-03-25T10:08:48;1.40;;;0.60;;
16407;SDS011;8313;49.894;8.084;2023-03-25T10:14:18;2.47;;;1.50;;
16407;SDS011;8313;49.894;8.084;2023-03-25T10:22:31;2.00;;;1.00;;
16407;SDS011;8313;49.894;8.084;2023-03-25T10:25:04;0.50;;;0.50;;
16407;SDS011;8313;49.894;8.084;2023-03-25T10:27:39;4.00;;;0.90;;
16407;SDS011;8313;49.894;8.084;2023-03-25T10:33:02;0.50;;;0.50;;
16407;SDS011;8313;49.894;8.084;2023-03-25T10:35:30;5.73;;;2.43;;
16407;SDS011;8313;49.894;8.084;2023-03-25T10:37:59;1.40;;;1.40;;
16407;SDS011;8313;49.894;8.084;2023-03-25T10:40:41;1.80;;;1.70;;
16407;SDS011;8313;49.894;8.084;2023-03-25T10:48:45;3.07;;;1.03;;
16407;SDS011;8313;49.894;8.084;2023-03-25T10:51:12;2.20;;;1.37;;
16407;SDS011;8313;49.894;8.084;2023-03-25T10:53:47;1.93;;;1.30;;
16407;SDS011;8313;49.894;8.084;2023-03-25T10:56:28;2.77;;;1.17;;
16407;SDS011;8313;49.894;8.084;2023-03-25T10:59:21;2.00;;;1.70;;
16407;SDS011;8313;49.894;8.084;2023-03-25T11:01:54;4.73;;;2.00;;
16407;SDS011;8313;49.894;8.084;2023-03-25T11:04:30;2.07;;;1.03;;
16407;SDS011;8313;49.894;8.084;2023-03-25T11:06:59;1.23;;;1.13;;
16407;SDS011;8313;49.894;8.084;2023-03-25T11:09:30;1.13;;;1.00;;
16407;SDS011;8313;49.894;8.084;2023-03-25T11:11:59;2.37;;;1.30;;
16407;SDS011;8313;49.894;8.084;2023-03-25T11:14:26;5.63;;;3.07;;
16407;SDS011;8313;49.894;8.084;2023-03-25T11:19:51;7.20;;;4.70;;
16407;SDS011;8313;49.894;8.084;2023-03-25T11:22:18;2.20;;;1.90;;
16407;SDS011;8313;49.894;8.084;2023-03-25T11:24:47;1.90;;;0.97;;
16407;SDS011;8313;49.894;8.084;2023-03-25T11:27:18;1.33;;;1.20;;
16407;SDS011;8313;49.894;8.084;2023-03-25T11:30:04;1.67;;;0.70;;
16407;SDS011;8313;49.894;8.084;2023-03-25T11:32:38;2.50;;;0.80;;
16407;SDS011;8313;49.894;8.084;2023-03-25T11:35:46;2.50;;;1.07;;
16407;SDS011;8313;49.894;8.084;2023-03-25T11:37:58;3.63;;;1.10;;
16407;SDS011;8313;49.894;8.084;2023-03-25T11:40:27;0.80;;;0.70;;
16407;SDS011;8313;49.894;8.084;2023-03-25T11:42:55;1.43;;;0.80;;
16407;SDS011;8313;49.894;8.084;2023-03-25T11:45:35;1.30;;;0.83;;
16407;SDS011;8313;49.894;8.084;2023-03-25T11:48:09;0.70;;;0.70;;
16407;SDS011;8313;49.894;8.084;2023-03-25T11:50:47;3.50;;;1.20;;
16407;SDS011;8313;49.894;8.084;2023-03-25T11:53:20;0.93;;;0.90;;
16407;SDS011;8313;49.894;8.084;2023-03-25T11:55:50;2.73;;;1.17;;
16407;SDS011;8313;49.894;8.084;2023-03-25T11:58:24;2.97;;;0.80;;
16407;SDS011;8313;49.894;8.084;2023-03-25T12:00:59;1.53;;;1.10;;
16407;SDS011;8313;49.894;8.084;2023-03-25T12:03:30;3.63;;;0.90;;
16407;SDS011;8313;49.894;8.084;2023-03-25T12:06:10;2.50;;;0.97;;
16407;SDS011;8313;49.894;8.084;2023-03-25T12:08:50;3.83;;;0.80;;
16407;SDS011;8313;49.894;8.084;2023-03-25T12:16:56;7.87;;;5.60;;
16407;SDS011;8313;49.894;8.084;2023-03-25T12:19:38;2.80;;;1.63;;
16407;SDS011;8313;49.894;8.084;2023-03-25T12:25:41;2.33;;;1.80;;
16407;SDS011;8313;49.894;8.084;2023-03-25T12:33:47;1.30;;;0.57;;
16407;SDS011;8313;49.894;8.084;2023-03-25T12:47:13;0.57;;;0.53;;
16407;SDS011;8313;49.894;8.084;2023-03-25T12:57:59;2.57;;;1.07;;
16407;SDS011;8313;49.894;8.084;2023-03-25T13:17:03;4.47;;;1.73;;
16407;SDS011;8313;49.894;8.084;2023-03-25T13:19:34;2.67;;;2.47;;
16407;SDS011;8313;49.894;8.084;2023-03-25T13:22:06;3.47;;;1.73;;
16407;SDS011;8313;49.894;8.084;2023-03-25T13:24:55;10.03;;;5.73;;
16407;SDS011;8313;49.894;8.084;2023-03-25T13:27:34;5.67;;;3.53;;
16407;SDS011;8313;49.894;8.084;2023-03-25T13:30:06;16.03;;;6.23;;
16407;SDS011;8313;49.894;8.084;2023-03-25T13:32:41;13.03;;;8.03;;
16407;SDS011;8313;49.894;8.084;2023-03-25T13:35:15;12.80;;;7.57;;
16407;SDS011;8313;49.894;8.084;2023-03-25T13:38:04;10.13;;;6.57;;
16407;SDS011;8313;49.894;8.084;2023-03-25T13:40:47;2.30;;;1.67;;
16407;SDS011;8313;49.894;8.084;2023-03-25T13:46:09;2.60;;;1.10;;
16407;SDS011;8313;49.894;8.084;2023-03-25T13:51:16;1.07;;;0.80;;
16407;SDS011;8313;49.894;8.084;2023-03-25T14:04:57;1.10;;;0.83;;
16407;SDS011;8313;49.894;8.084;2023-03-25T14:13:30;2.30;;;0.87;;
16407;SDS011;8313;49.894;8.084;2023-03-25T14:18:43;1.93;;;0.80;;
16407;SDS011;8313;49.894;8.084;2023-03-25T14:21:14;2.73;;;0.80;;
16407;SDS011;8313;49.894;8.084;2023-03-25T14:34:41;0.90;;;0.63;;
16407;SDS011;8313;49.894;8.084;2023-03-25T14:37:09;1.80;;;0.80;;
16407;SDS011;8313;49.894;8.084;2023-03-25T14:39:39;2.03;;;0.97;;
16407;SDS011;8313;49.894;8.084;2023-03-25T14:44:40;2.73;;;0.93;;
16407;SDS011;8313;49.894;8.084;2023-03-25T14:52:44;1.43;;;1.03;;
16407;SDS011;8313;49.894;8.084;2023-03-25T14:57:54;2.60;;;0.83;;
16407;SDS011;8313;49.894;8.084;2023-03-25T15:00:28;1.17;;;0.87;;
16407;SDS011;8313;49.894;8.084;2023-03-25T15:03:02;2.67;;;1.00;;
16407;SDS011;8313;49.894;8.084;2023-03-25T15:05:35;2.20;;;0.93;;
16407;SDS011;8313;49.894;8.084;2023-03-25T15:10:34;2.30;;;1.00;;
16407;SDS011;8313;49.894;8.084;2023-03-25T15:21:03;1.40;;;0.77;;
16407;SDS011;8313;49.894;8.084;2023-03-25T15:23:42;2.83;;;0.70;;
16407;SDS011;8313;49.894;8.084;2023-03-25T15:26:24;1.87;;;1.30;;
16407;SDS011;8313;49.894;8.084;2023-03-25T15:28:59;1.60;;;0.70;;
16407;SDS011;8313;49.894;8.084;2023-03-25T15:56:22;11.73;;;3.30;;
16407;SDS011;8313;49.894;8.084;2023-03-25T15:58:59;3.63;;;1.77;;
16407;SDS011;8313;49.894;8.084;2023-03-25T16:01:30;2.60;;;0.90;;
16407;SDS011;8313;49.894;8.084;2023-03-25T16:06:43;3.90;;;1.00;;
16407;SDS011;8313;49.894;8.084;2023-03-25T16:09:19;6.80;;;1.00;;
16407;SDS011;8313;49.894;8.084;2023-03-25T16:11:48;2.57;;;1.40;;
16407;SDS011;8313;49.894;8.084;2023-03-25T16:14:16;1.47;;;0.60;;
16407;SDS011;8313;49.894;8.084;2023-03-25T16:16:47;1.10;;;0.60;;
16407;SDS011;8313;49.894;8.084;2023-03-25T16:19:15;0.80;;;0.50;;
16407;SDS011;8313;49.894;8.084;2023-03-25T16:21:48;1.80;;;0.60;;
16407;SDS011;8313;49.894;8.084;2023-03-25T16:24:15;2.83;;;0.77;;
16407;SDS011;8313;49.894;8.084;2023-03-25T16:26:45;2.50;;;0.90;;
16407;SDS011;8313;49.894;8.084;2023-03-25T16:31:50;1.60;;;0.80;;
16407;SDS011;8313;49.894;8.084;2023-03-25T16:34:24;4.97;;;0.80;;
16407;SDS011;8313;49.894;8.084;2023-03-25T16:36:51;1.07;;;1.00;;
16407;SDS011;8313;49.894;8.084;2023-03-25T16:39:20;1.23;;;0.93;;
16407;SDS011;8313;49.894;8.084;2023-03-25T16:41:49;0.90;;;0.70;;
16407;SDS011;8313;49.894;8.084;2023-03-25T16:44:23;2.40;;;0.80;;
16407;SDS011;8313;49.894;8.084;2023-03-25T16:46:49;2.10;;;0.80;;
16407;SDS011;8313;49.894;8.084;2023-03-25T16:51:52;1.67;;;0.83;;
16407;SDS011;8313;49.894;8.084;2023-03-25T16:57:00;1.57;;;0.90;;
16407;SDS011;8313;49.894;8.084;2023-03-25T17:01:56;3.83;;;1.90;;
16407;SDS011;8313;49.894;8.084;2023-03-25T17:07:04;0.80;;;0.70;;
16407;SDS011;8313;49.894;8.084;2023-03-25T17:09:33;1.70;;;1.10;;
16407;SDS011;8313;49.894;8.084;2023-03-25T17:12:07;2.60;;;1.00;;
16407;SDS011;8313;49.894;8.084;2023-03-25T17:14:36;1.13;;;0.87;;
16407;SDS011;8313;49.894;8.084;2023-03-25T17:17:07;2.90;;;1.00;;
16407;SDS011;8313;49.894;8.084;2023-03-25T17:19:45;1.57;;;1.00;;
16407;SDS011;8313;49.894;8.084;2023-03-25T17:22:19;2.37;;;1.27;;
16407;SDS011;8313;49.894;8.084;2023-03-25T17:24:56;2.60;;;1.73;;
16407;SDS011;8313;49.894;8.084;2023-03-25T17:27:38;2.77;;;1.13;;
16407;SDS011;8313;49.894;8.084;2023-03-25T17:32:41;6.20;;;2.60;;
16407;SDS011;8313;49.894;8.084;2023-03-25T17:35:15;1.33;;;1.17;;
16407;SDS011;8313;49.894;8.084;2023-03-25T17:37:45;3.60;;;2.53;;
16407;SDS011;8313;49.894;8.084;2023-03-25T17:40:17;2.50;;;1.57;;
16407;SDS011;8313;49.894;8.084;2023-03-25T17:42:46;2.60;;;1.50;;
16407;SDS011;8313;49.894;8.084;2023-03-25T17:45:13;2.07;;;1.43;;
16407;SDS011;8313;49.894;8.084;2023-03-25T17:47:40;2.00;;;1.60;;
16407;SDS011;8313;49.894;8.084;2023-03-25T17:50:13;1.30;;;1.20;;
16407;SDS011;8313;49.894;8.084;2023-03-25T17:52:44;1.00;;;1.00;;
16407;SDS011;8313;49.894;8.084;2023-03-25T17:55:10;0.70;;;0.70;;
16407;SDS011;8313;49.894;8.084;2023-03-25T17:57:36;0.83;;;0.70;;
16407;SDS011;8313;49.894;8.084;2023-03-25T18:00:02;1.23;;;0.80;;
16407;SDS011;8313;49.894;8.084;2023-03-25T18:02:39;0.67;;;0.67;;
16407;SDS011;8313;49.894;8.084;2023-03-25T18:05:06;1.00;;;0.87;;
16407;SDS011;8313;49.894;8.084;2023-03-25T18:07:32;0.70;;;0.70;;
16407;SDS011;8313;49.894;8.084;2023-03-25T18:09:57;0.93;;;0.87;;
16407;SDS011;8313;49.894;8.084;2023-03-25T18:12:23;0.87;;;0.80;;
16407;SDS011;8313;49.894;8.084;2023-03-25T18:14:49;0.80;;;0.80;;
16407;SDS011;8313;49.894;8.084;2023-03-25T18:17:15;1.17;;;0.70;;
16407;SDS011;8313;49.894;8.084;2023-03-25T18:19:40;4.27;;;3.53;;
16407;SDS011;8313;49.894;8.084;2023-03-25T18:22:07;7.50;;;6.20;;
16407;SDS011;8313;49.894;8.084;2023-03-25T18:24:33;14.20;;;11.20;;
16407;SDS011;8313;49.894;8.084;2023-03-25T18:27:00;4.00;;;3.07;;
16407;SDS011;8313;49.894;8.084;2023-03-25T18:29:28;1.07;;;1.03;;
16407;SDS011;8313;49.894;8.084;2023-03-25T18:31:55;1.93;;;1.80;;
16407;SDS011;8313;49.894;8.084;2023-03-25T18:34:21;1.07;;;0.97;;
16407;SDS011;8313;49.894;8.084;2023-03-25T18:36:50;0.73;;;0.73;;
16407;SDS011;8313;49.894;8.084;2023-03-25T18:39:18;0.87;;;0.50;;
16407;SDS011;8313;49.894;8.084;2023-03-25T18:41:46;0.50;;;0.50;;
16407;SDS011;8313;49.894;8.084;2023-03-25T18:44:12;0.70;;;0.60;;
16407;SDS011;8313;49.894;8.084;2023-03-25T18:46:38;0.90;;;0.70;;
16407;SDS011;8313;49.894;8.084;2023-03-25T18:49:05;0.67;;;0.67;;
16407;SDS011;8313;49.894;8.084;2023-03-25T18:51:37;1.17;;;0.50;;
16407;SDS011;8313;49.894;8.084;2023-03-25T18:54:03;0.80;;;0.80;;
16407;SDS011;8313;49.894;8.084;2023-03-25T18:56:29;0.93;;;0.70;;
16407;SDS011;8313;49.894;8.084;2023-03-25T18:58:55;1.00;;;0.63;;